sensor_id;sensor_type;location;lat;lon;timestamp;pressure;altitude;pressure_sealevel;temperature;humidity
80511;BME280;69840;53.040;8.600;2023-09-07T00:17:26;102263.94;;;17.99;83.71
80511;BME280;69840;53.040;8.600;2023-09-07T00:42:45;102261.09;;;17.70;84.17
80511;BME280;69840;53.040;8.600;2023-09-07T01:08:14;102257.13;;;17.49;84.44
80511;BME280;69840;53.040;8.600;2023-09-07T01:33:35;102267.75;;;17.27;85.07
80511;BME280;69840;53.040;8.600;2023-09-07T01:58:54;102271.44;;;17.09;85.34
80511;BME280;69840;53.040;8.600;2023-09-07T02:24:13;102273.13;;;16.86;85.59
80511;BME280;69840;53.040;8.600;2023-09-07T02:49:33;102286.84;;;16.67;85.88
80511;BME280;69840;53.040;8.600;2023-09-07T03:14:52;102283.78;;;16.45;85.86
80511;BME280;69840;53.040;8.600;2023-09-07T03:40:13;102271.44;;;16.20;86.62
80511;BME280;69840;53.040;8.600;2023-09-07T04:05:34;102296.19;;;15.96;86.44
80511;BME280;69840;53.040;8.600;2023-09-07T04:30:55;102303.13;;;15.81;86.67
80511;BME280;69840;53.040;8.600;2023-09-07T04:56:14;102296.13;;;15.72;87.36
80511;BME280;69840;53.040;8.600;2023-09-07T05:21:35;102303.97;;;15.73;87.65
80511;BME280;69840;53.040;8.600;2023-09-07T05:46:54;102310.78;;;16.26;87.53
80511;BME280;69840;53.040;8.600;2023-09-07T06:12:14;102320.38;;;17.10;85.25
80511;BME280;69840;53.040;8.600;2023-09-07T06:37:34;102334.31;;;18.39;80.75
80511;BME280;69840;53.040;8.600;2023-09-07T07:02:55;102350.56;;;19.73;74.67
80511;BME280;69840;53.040;8.600;2023-09-07T07:28:14;102365.69;;;20.82;68.72
80511;BME280;69840;53.040;8.600;2023-09-07T07:53:33;102356.72;;;21.80;66.29
80511;BME280;69840;53.040;8.600;2023-09-07T08:18:53;102363.31;;;22.79;62.35
80511;BME280;69840;53.040;8.600;2023-09-07T08:44:16;102362.94;;;24.51;58.50
80511;BME280;69840;53.040;8.600;2023-09-07T09:09:36;102351.47;;;24.55;59.22
80511;BME280;69840;53.040;8.600;2023-09-07T09:34:57;102346.72;;;25.07;56.89
80511;BME280;69840;53.040;8.600;2023-09-07T10:00:17;102328.47;;;25.64;52.90
80511;BME280;69840;53.040;8.600;2023-09-07T10:25:36;102303.06;;;26.54;50.25
80511;BME280;69840;53.040;8.600;2023-09-07T10:50:55;102287.53;;;29.89;41.61
80511;BME280;69840;53.040;8.600;2023-09-07T11:16:16;102263.28;;;36.23;29.16
80511;BME280;69840;53.040;8.600;2023-09-07T11:41:35;102225.41;;;41.55;19.50
80511;BME280;69840;53.040;8.600;2023-09-07T12:06:55;102187.94;;;47.31;14.42
80511;BME280;69840;53.040;8.600;2023-09-07T12:32:14;102167.69;;;50.49;8.96
80511;BME280;69840;53.040;8.600;2023-09-07T12:57:34;102136.31;;;50.47;9.91
80511;BME280;69840;53.040;8.600;2023-09-07T13:22:54;102110.56;;;44.37;15.69
80511;BME280;69840;53.040;8.600;2023-09-07T13:48:13;102091.72;;;38.90;21.41
80511;BME280;69840;53.040;8.600;2023-09-07T14:13:36;102077.63;;;38.44;23.36
80511;BME280;69840;53.040;8.600;2023-09-07T14:38:55;102062.97;;;38.43;21.83
80511;BME280;69840;53.040;8.600;2023-09-07T15:04:15;102064.84;;;36.97;23.35
80511;BME280;69840;53.040;8.600;2023-09-07T15:29:34;102050.59;;;34.06;29.93
80511;BME280;69840;53.040;8.600;2023-09-07T15:54:53;102029.84;;;31.07;34.21
80511;BME280;69840;53.040;8.600;2023-09-07T16:20:12;102034.91;;;29.73;39.11
80511;BME280;69840;53.040;8.600;2023-09-07T16:45:32;102040.69;;;28.52;42.40
80511;BME280;69840;53.040;8.600;2023-09-07T17:10:51;102037.91;;;27.75;46.82
80511;BME280;69840;53.040;8.600;2023-09-07T17:36:15;102026.03;;;26.63;47.46
80511;BME280;69840;53.040;8.600;2023-09-07T18:01:34;102045.41;;;25.84;53.65
80511;BME280;69840;53.040;8.600;2023-09-07T18:26:54;102060.03;;;24.57;57.80
80511;BME280;69840;53.040;8.600;2023-09-07T18:52:13;102074.84;;;23.17;64.72
80511;BME280;69840;53.040;8.600;2023-09-07T19:17:32;102078.75;;;22.70;63.01
80511;BME280;69840;53.040;8.600;2023-09-07T19:42:51;102087.16;;;22.29;62.23
80511;BME280;69840;53.040;8.600;2023-09-07T20:08:10;102091.69;;;21.82;61.80
80511;BME280;69840;53.040;8.600;2023-09-07T20:33:29;102088.72;;;21.57;61.35
80511;BME280;69840;53.040;8.600;2023-09-07T20:58:49;102070.09;;;21.49;60.59
80511;BME280;69840;53.040;8.600;2023-09-07T21:24:08;102062.94;;;21.15;61.14
80511;BME280;69840;53.040;8.600;2023-09-07T21:49:27;102063.13;;;20.59;64.13
80511;BME280;69840;53.040;8.600;2023-09-07T22:14:47;102064.00;;;19.83;69.09
80511;BME280;69840;53.040;8.600;2023-09-07T22:40:07;102040.56;;;19.13;71.80
80511;BME280;69840;53.040;8.600;2023-09-07T23:05:35;102056.81;;;18.61;73.59
80511;BME280;69840;53.040;8.600;2023-09-07T23:30:54;102055.28;;;18.29;74.37
80511;BME280;69840;53.040;8.600;2023-09-07T23:56:13;102041.41;;;17.96;76.59
